Time;durP1;ratioP1;P1;durP2;ratioP2;P2;SDS_P1;SDS_P2;PMS_P1;PMS_P2;Temp;Humidity;BMP_temperature;BMP_pressure;BME280_temperature;BME280_humidity;BME280_pressure;Samples;Min_cycle;Max_cycle;Signal;HPM_P1;HPM_P2
2023/01/01 00:00:01;;;;;;;;;5.67;5.67;;;;;16.92;50.36;-10624.50;4860791;29;45536;-88
2023/01/01 00:02:26;;;;;;;;;7.67;7.33;;;;;17.17;50.05;-10627.50;4859639;29;45597;-88
2023/01/01 00:04:52;;;;;;;;;4.67;4.67;;;;;17.01;50.33;-10960.63;4843541;29;45484;-88
2023/01/01 00:07:17;;;;;;;;;8.67;7.67;;;;;16.76;50.70;-10957.59;4862624;29;45481;-88
2023/01/01 00:12:27;;;;;;;;;6.00;6.00;;;;;17.01;50.67;-10960.69;4863091;29;45537;-88
2023/01/01 00:14:52;;;;;;;;;6.00;5.00;;;;;17.06;50.53;-11296.31;4856598;29;45465;-88
2023/01/01 00:17:17;;;;;;;;;8.00;5.00;;;;;17.31;51.00;-11299.53;4862573;29;45515;-88
2023/01/01 00:19:43;;;;;;;;;5.67;5.67;;;;;16.91;51.26;-11629.34;4853477;29;45414;-88
2023/01/01 00:22:08;;;;;;;;;3.67;2.00;;;;;16.84;51.51;-11628.38;4848009;29;45521;-88
2023/01/01 00:24:33;;;;;;;;;5.00;5.00;;;;;16.74;51.35;-11961.84;4862959;29;45481;-88
2023/01/01 00:26:59;;;;;;;;;6.00;6.00;;;;;16.85;51.30;-11963.41;4862224;29;46063;-87
2023/01/01 00:29:24;;;;;;;;;9.67;6.00;;;;;16.83;51.31;-11963.13;4861710;29;45396;-87
2023/01/01 00:31:49;;;;;;;;;6.00;6.00;;;;;17.03;51.99;-11965.97;4859070;29;45515;-87
2023/01/01 00:34:15;;;;;;;;;6.67;6.67;;;;;17.05;51.78;-11966.25;4845346;29;45356;-87
2023/01/01 00:36:40;;;;;;;;;9.00;8.25;;;;;16.17;51.34;-12288.50;4860718;29;46333;-88
2023/01/01 00:39:06;;;;;;;;;9.00;8.00;;;;;16.77;51.53;-12297.06;4862510;29;45713;-86
2023/01/01 00:41:31;;;;;;;;;8.50;8.50;;;;;16.60;51.98;-12294.72;4862624;29;45502;-87
2023/01/01 00:43:56;;;;;;;;;6.00;5.67;;;;;16.06;51.75;-12286.88;4862583;29;45468;-87
2023/01/01 00:46:22;;;;;;;;;7.33;5.67;;;;;17.24;52.35;-12638.97;4862166;29;46566;-88
2023/01/01 00:48:47;;;;;;;;;5.00;5.00;;;;;16.93;52.22;-12634.31;4831171;29;46143;-87
2023/01/01 00:51:12;;;;;;;;;9.00;8.00;;;;;17.06;52.49;-12636.22;4857896;29;45494;-87
2023/01/01 00:53:38;;;;;;;;;7.00;7.00;;;;;16.36;52.32;-12625.78;4862707;29;45681;-87
2023/01/01 00:56:04;;;;;;;;;5.67;5.67;;;;;16.93;52.48;-12969.16;4844966;29;46122;-87
2023/01/01 00:58:29;;;;;;;;;4.67;4.00;;;;;17.13;53.01;-13307.16;4843187;29;45503;-86
2023/01/01 01:00:55;;;;;;;;;4.33;4.00;;;;;17.19;53.17;-13308.13;4860700;29;45357;-87
2023/01/01 01:03:27;;;;;;;;;7.00;5.00;;;;;17.20;52.64;-13308.22;4860389;29;45366;-87
2023/01/01 01:06:08;;;;;;;;;5.00;3.00;;;;;17.18;53.01;-13642.78;4855924;29;45555;-86
2023/01/01 01:08:37;;;;;;;;;3.67;3.67;;;;;16.66;53.09;-13968.84;4862052;29;45363;-86
2023/01/01 01:11:15;;;;;;;;;5.67;4.00;;;;;17.12;53.25;-13976.63;4862200;29;45367;-87
2023/01/01 01:13:43;;;;;;;;;4.67;3.33;;;;;17.19;53.54;-13977.94;4845923;29;45443;-87
2023/01/01 01:16:20;;;;;;;;;4.33;3.00;;;;;16.83;53.35;-13971.72;4858678;29;45434;-87
2023/01/01 01:18:49;;;;;;;;;6.00;5.00;;;;;16.66;53.77;-14303.50;4851724;29;45501;-87
2023/01/01 01:21:17;;;;;;;;;4.67;4.00;;;;;17.20;53.87;-14312.97;4862114;29;45461;-87
2023/01/01 01:23:42;;;;;;;;;4.33;4.33;;;;;16.51;53.55;-14635.25;4836669;29;45570;-89
2023/01/01 01:26:07;;;;;;;;;5.33;5.33;;;;;17.19;53.87;-14647.63;4852881;29;46189;-90
2023/01/01 01:28:33;;;;;;;;;6.67;5.67;;;;;17.20;54.47;-14982.53;4840209;29;46030;-87
2023/01/01 01:30:59;;;;;;;;;6.67;5.67;;;;;16.64;54.21;-14972.09;4843669;29;45747;-90
2023/01/01 01:33:24;;;;;;;;;10.25;8.75;;;;;16.62;54.63;-14971.81;4852392;29;45493;-91
2023/01/01 01:35:51;;;;;;;;;8.50;8.25;;;;;16.30;54.64;-15300.06;4841779;29;47057;-89
2023/01/01 01:38:16;;;;;;;;;8.75;7.75;;;;;16.87;54.71;-15311.00;4855480;29;45554;-89
2023/01/01 01:40:42;;;;;;;;;13.50;13.00;;;;;17.07;54.81;-15649.50;4852980;29;45535;-90
2023/01/01 01:43:22;;;;;;;;;10.50;8.75;;;;;16.88;55.02;-15645.88;4837206;29;45428;-87
2023/01/01 01:45:48;;;;;;;;;6.75;6.75;;;;;17.15;55.58;-15985.81;4861685;29;45630;-88
2023/01/01 01:48:13;;;;;;;;;7.75;7.75;;;;;17.12;55.50;-15985.09;4833707;29;46072;-87
2023/01/01 01:50:43;;;;;;;;;8.00;8.00;;;;;16.33;55.54;-15969.19;4862827;29;45284;-90
2023/01/01 01:53:22;;;;;;;;;7.67;7.00;;;;;16.80;56.05;-16313.22;4845378;29;45589;-91
2023/01/01 01:55:52;;;;;;;;;9.67;6.33;;;;;17.02;55.77;-16317.72;4838745;29;47523;-90
2023/01/01 01:58:23;;;;;;;;;7.00;7.00;;;;;17.10;56.19;-16654.03;4854305;29;45418;-89
2023/01/01 02:03:31;;;;;;;;;8.33;8.33;;;;;16.35;56.59;-16972.22;4889512;23;45856;-92
2023/01/01 02:05:57;;;;;;;;;9.33;7.67;;;;;15.90;56.58;-16962.25;4822235;29;46824;-89
2023/01/01 02:08:24;;;;;;;;;7.67;6.33;;;;;16.62;56.66;-17312.34;4841699;29;45484;-87
2023/01/01 02:10:49;;;;;;;;;8.00;8.00;;;;;16.09;56.57;-17300.50;4840513;29;45494;-86
2023/01/01 02:13:16;;;;;;;;;8.67;8.67;;;;;16.53;56.55;-17310.28;4844612;29;45272;-86
2023/01/01 02:15:51;;;;;;;;;6.00;6.00;;;;;16.72;57.20;-17314.53;4839407;29;46275;-91
2023/01/01 02:18:24;;;;;;;;;5.33;3.33;;;;;16.98;57.20;-17654.84;4828841;29;45436;-90
2023/01/01 02:21:05;;;;;;;;;5.67;4.00;;;;;17.07;57.37;-17656.97;4831708;29;45479;-92
2023/01/01 02:23:45;;;;;;;;;6.00;6.00;;;;;16.88;57.47;-17987.09;4827789;29;45340;-92
2023/01/01 02:26:37;;;;;;;;;5.33;4.33;;;;;16.94;57.34;-17988.31;4851930;29;47288;-93
2023/01/01 02:29:35;;;;;;;;;5.67;3.67;;;;;17.05;57.46;-17991.06;4859801;29;45717;-95
2023/01/01 02:32:10;;;;;;;;;5.33;5.00;;;;;16.63;57.50;-17981.09;4841346;29;45394;-94
2023/01/01 02:34:44;;;;;;;;;4.67;4.67;;;;;17.02;57.68;-18324.63;4844256;29;45306;-93
2023/01/01 02:37:13;;;;;;;;;8.67;8.00;;;;;16.57;57.74;-18313.94;4827295;29;48271;-93
2023/01/01 02:40:03;;;;;;;;;11.75;11.00;;;;;17.03;57.77;-18324.88;4831166;29;45375;-93
2023/01/01 02:42:29;;;;;;;;;11.50;11.50;;;;;16.75;58.38;-18318.13;4835904;29;45446;-93
2023/01/01 02:44:58;;;;;;;;;11.50;11.50;;;;;16.88;58.06;-18655.63;4832041;29;45333;-92
2023/01/01 02:47:23;;;;;;;;;15.50;14.75;;;;;16.86;58.18;-18655.13;4829742;29;47394;-93
2023/01/01 02:50:21;;;;;;;;;9.75;9.75;;;;;15.86;58.12;-18630.59;4843692;29;46017;-93
2023/01/01 02:53:17;;;;;;;;;7.25;7.25;;;;;17.00;58.52;-18658.53;4824834;29;47006;-93
2023/01/01 02:56:05;;;;;;;;;8.00;8.00;;;;;16.96;58.72;-18991.97;4831703;29;45663;-94
2023/01/01 03:01:50;;;;;;;;;6.67;5.00;;;;;16.78;58.85;-18987.34;4846690;29;45442;-92
2023/01/01 03:04:26;;;;;;;;;6.00;6.00;;;;;16.87;59.10;-18989.66;4840135;29;45380;-91
2023/01/01 03:07:11;;;;;;;;;6.33;4.67;;;;;16.48;58.88;-18979.75;4830482;29;45499;-89
2023/01/01 03:10:06;;;;;;;;;6.67;4.00;;;;;16.50;59.02;-18980.28;4842029;29;46672;-94
2023/01/01 03:12:45;;;;;;;;;5.33;5.00;;;;;16.67;59.29;-18984.78;4845022;29;45516;-91
2023/01/01 03:15:29;;;;;;;;;7.67;6.33;;;;;16.80;59.12;-19322.06;4841353;29;45431;-94
2023/01/01 03:18:09;;;;;;;;;12.00;8.00;;;;;16.85;59.14;-19323.50;4831461;29;45391;-93
2023/01/01 03:20:40;;;;;;;;;8.50;8.50;;;;;16.45;59.45;-19313.13;4822539;29;48759;-93
2023/01/01 03:23:10;;;;;;;;;11.75;9.75;;;;;16.86;59.60;-19323.78;4848544;29;45569;-93
2023/01/01 03:25:42;;;;;;;;;13.25;12.25;;;;;16.86;59.31;-19323.78;4846595;29;45374;-93
2023/01/01 03:28:16;;;;;;;;;9.50;9.50;;;;;15.79;59.50;-19296.22;4847327;29;45482;-94
2023/01/01 03:30:45;;;;;;;;;13.00;13.00;;;;;16.85;59.74;-19323.38;4818841;29;47624;-95
2023/01/01 03:33:17;;;;;;;;;7.25;7.00;;;;;16.84;59.75;-19323.13;4859714;29;45365;-95
2023/01/01 03:35:48;;;;;;;;;11.00;7.50;;;;;16.81;59.67;-19656.66;4854108;29;45541;-92
2023/01/01 03:38:21;;;;;;;;;6.33;6.33;;;;;15.61;59.80;-19625.28;4833337;29;45329;-94
2023/01/01 03:40:50;;;;;;;;;8.33;5.33;;;;;16.79;59.75;-19656.13;4820928;29;48491;-91
2023/01/01 03:43:27;;;;;;;;;5.00;3.67;;;;;16.76;60.44;-19655.16;4835736;29;45557;-90
2023/01/01 03:45:55;;;;;;;;;4.33;4.33;;;;;16.58;60.14;-19650.63;4825794;29;45607;-94
2023/01/01 03:48:21;;;;;;;;;4.00;3.67;;;;;16.29;60.16;-19642.97;4832138;29;45376;-93
2023/01/01 03:50:56;;;;;;;;;7.67;5.33;;;;;16.73;60.50;-19654.38;4834901;29;47310;-91
2023/01/01 03:53:35;;;;;;;;;10.00;6.00;;;;;16.69;60.38;-19653.44;4842289;29;45712;-90
2023/01/01 03:56:27;;;;;;;;;8.00;4.33;;;;;16.64;60.41;-19652.09;4837381;29;45451;-91
2023/01/01 03:59:20;;;;;;;;;4.00;4.00;;;;;15.81;60.80;-19630.53;4833313;29;45673;-91
2023/01/01 04:01:51;;;;;;;;;8.67;7.33;;;;;16.65;60.72;-19654.44;4848284;29;47647;-90
2023/01/01 04:04:18;;;;;;;;;6.33;6.33;;;;;16.65;60.81;-19654.44;4828112;29;45468;-92
2023/01/01 04:06:44;;;;;;;;;4.33;4.33;;;;;16.54;60.96;-19651.38;4843905;29;45452;-92
2023/01/01 04:09:15;;;;;;;;;6.67;5.33;;;;;16.63;61.11;-19653.91;4841078;29;45667;-90
2023/01/01 04:14:37;;;;;;;;;6.00;6.00;;;;;16.56;61.24;-19652.03;4837945;29;45569;-91
2023/01/01 04:17:05;;;;;;;;;9.33;6.67;;;;;16.57;61.08;-19652.31;4854722;29;46711;-90
2023/01/01 04:19:31;;;;;;;;;4.67;3.67;;;;;16.40;61.59;-19647.88;4826260;29;45537;-91
2023/01/01 04:21:58;;;;;;;;;4.00;4.00;;;;;16.60;61.78;-19653.13;4840595;29;47464;-92
2023/01/01 04:24:24;;;;;;;;;5.33;4.00;;;;;16.48;61.66;-19649.91;4829091;29;46370;-91
2023/01/01 04:26:50;;;;;;;;;4.00;4.00;;;;;16.63;61.38;-19653.91;4843213;29;45633;-90
2023/01/01 04:29:16;;;;;;;;;6.00;4.33;;;;;16.32;61.57;-19645.59;4835398;29;45324;-89
2023/01/01 04:31:41;;;;;;;;;4.00;4.00;;;;;16.35;61.85;-19646.41;4843905;29;46310;-90
2023/01/01 04:34:07;;;;;;;;;6.00;6.00;;;;;16.10;61.71;-19639.97;4844525;29;45425;-89
2023/01/01 04:36:33;;;;;;;;;5.67;4.33;;;;;15.35;61.96;-19620.25;4828671;29;45313;-91
2023/01/01 04:38:58;;;;;;;;;4.33;3.00;;;;;16.51;61.86;-19650.69;4841290;29;45528;-86
2023/01/01 04:41:24;;;;;;;;;7.33;6.33;;;;;15.62;62.36;-19627.38;4826085;29;47521;-87
2023/01/01 04:43:49;;;;;;;;;6.67;5.00;;;;;16.11;62.17;-19640.25;4843302;29;45754;-87
2023/01/01 04:46:19;;;;;;;;;5.67;4.67;;;;;16.48;62.40;-19649.75;4841038;29;45731;-87
2023/01/01 04:48:45;;;;;;;;;6.67;4.67;;;;;16.01;62.41;-19637.72;4842834;29;45807;-88
2023/01/01 04:51:12;;;;;;;;;6.67;5.33;;;;;15.63;62.20;-19627.78;4842257;29;46347;-85
2023/01/01 04:53:39;;;;;;;;;4.67;4.67;;;;;16.22;62.47;-19643.06;4842999;29;45332;-86
2023/01/01 04:56:06;;;;;;;;;4.33;4.00;;;;;16.50;62.39;-19650.44;4840865;29;45558;-91
2023/01/01 04:58:33;;;;;;;;;4.00;4.00;;;;;16.49;62.84;-19650.16;4856264;29;46783;-88
2023/01/01 05:00:58;;;;;;;;;4.67;3.33;;;;;16.34;63.05;-19646.16;4843514;29;45504;-91
2023/01/01 05:03:24;;;;;;;;;3.67;3.00;;;;;16.22;62.64;-19643.06;4825675;29;45721;-89
2023/01/01 05:06:04;;;;;;;;;8.33;4.00;;;;;16.02;62.97;-19637.97;4828602;29;45639;-88
2023/01/01 05:08:37;;;;;;;;;5.00;5.00;;;;;16.12;62.78;-19640.38;4835626;29;45525;-88
2023/01/01 05:11:18;;;;;;;;;5.00;5.00;;;;;16.17;63.01;-19641.84;4826900;29;47074;-86
2023/01/01 05:13:45;;;;;;;;;5.00;5.00;;;;;15.99;63.09;-19637.16;4843059;29;45519;-87
2023/01/01 05:16:13;;;;;;;;;5.00;5.00;;;;;16.44;63.39;-19648.81;4841699;29;45464;-86
2023/01/01 05:18:39;;;;;;;;;7.67;7.67;;;;;16.09;63.35;-19639.72;4836511;29;45399;-86
2023/01/01 05:21:07;;;;;;;;;8.33;8.33;;;;;16.43;63.70;-19648.69;4843404;29;45340;-87
2023/01/01 05:23:33;;;;;;;;;7.33;7.33;;;;;15.96;63.20;-19636.22;4843605;29;45365;-90
2023/01/01 05:25:59;;;;;;;;;7.00;7.00;;;;;15.78;63.98;-19631.66;4842071;29;45474;-89
2023/01/01 05:28:25;;;;;;;;;10.50;9.00;;;;;16.41;63.88;-19648.16;4833672;29;45509;-90
2023/01/01 05:30:52;;;;;;;;;11.00;8.75;;;;;16.43;64.01;-19648.56;4839407;29;45436;-95
2023/01/01 05:33:18;;;;;;;;;9.75;9.75;;;;;16.29;63.53;-19644.81;4827943;29;46093;-93
2023/01/01 05:35:44;;;;;;;;;9.00;9.00;;;;;16.07;63.76;-19639.03;4837474;29;45617;-93
2023/01/01 05:38:09;;;;;;;;;7.75;6.75;;;;;16.08;63.66;-19639.31;4841208;29;45528;-93
2023/01/01 05:40:38;;;;;;;;;6.00;6.00;;;;;16.23;63.82;-19643.47;4828497;29;47026;-94
2023/01/01 05:43:04;;;;;;;;;10.25;6.25;;;;;16.22;64.06;-19643.06;4828590;29;45731;-93
2023/01/01 05:45:29;;;;;;;;;6.33;4.67;;;;;16.02;63.78;-19637.97;4843082;29;45364;-93
2023/01/01 05:47:55;;;;;;;;;8.00;4.33;;;;;15.99;63.91;-19637.03;4840583;29;45345;-93
2023/01/01 05:50:20;;;;;;;;;3.00;3.00;;;;;16.43;64.39;-19648.56;4831743;29;47613;-92
2023/01/01 05:52:46;;;;;;;;;7.67;5.33;;;;;15.83;63.83;-19632.88;4832097;29;45533;-92
2023/01/01 05:55:11;;;;;;;;;5.00;5.00;;;;;16.27;64.41;-19644.41;4831675;29;45365;-90
2023/01/01 05:57:37;;;;;;;;;4.67;4.67;;;;;15.79;64.44;-19631.81;4849797;29;45340;-90
2023/01/01 06:00:02;;;;;;;;;5.00;5.00;;;;;16.35;64.14;-19646.41;4841445;29;45600;-89
2023/01/01 06:02:30;;;;;;;;;5.00;5.00;;;;;16.16;64.53;-19641.59;4828050;29;45445;-90
2023/01/01 06:04:55;;;;;;;;;3.00;3.00;;;;;15.21;64.06;-19616.66;4826633;29;45508;-90
2023/01/01 06:07:20;;;;;;;;;7.33;4.00;;;;;15.47;64.50;-19623.47;4832085;29;45507;-90
2023/01/01 06:09:46;;;;;;;;;7.67;4.33;;;;;14.95;64.68;-19609.94;4846220;29;45583;-88
2023/01/01 06:12:11;;;;;;;;;6.33;5.00;;;;;15.76;64.43;-19631.13;4841915;29;45730;-90
2023/01/01 06:14:36;;;;;;;;;5.00;3.33;;;;;15.76;64.89;-19631.13;4841636;29;45335;-89
2023/01/01 06:17:02;;;;;;;;;5.00;3.33;;;;;16.10;64.66;-19639.97;4830667;29;45418;-91
2023/01/01 06:19:27;;;;;;;;;6.67;5.33;;;;;15.64;64.64;-19627.91;4832612;29;47426;-91
2023/01/01 06:21:52;;;;;;;;;7.00;6.33;;;;;16.10;64.81;-19639.97;4829969;29;45511;-92
2023/01/01 06:24:18;;;;;;;;;4.00;4.00;;;;;16.25;64.53;-19643.88;4831230;29;45443;-91
2023/01/01 06:26:43;;;;;;;;;7.00;5.00;;;;;15.99;65.06;-19637.03;4834200;29;45511;-91
2023/01/01 06:29:08;;;;;;;;;7.67;4.33;;;;;16.01;65.11;-19637.56;4830729;29;48296;-91
2023/01/01 06:31:34;;;;;;;;;10.00;6.00;;;;;16.24;65.14;-19643.72;4828786;29;45749;-91
2023/01/01 06:33:59;;;;;;;;;5.67;3.67;;;;;16.25;64.87;-19643.88;4829562;29;45560;-92
2023/01/01 06:36:26;;;;;;;;;5.00;4.33;;;;;16.27;64.62;-19644.28;4831344;29;46737;-91
2023/01/01 06:38:54;;;;;;;;;5.00;4.00;;;;;15.90;64.94;-19634.75;4827214;29;48276;-91
2023/01/01 06:41:22;;;;;;;;;5.67;4.00;;;;;16.01;65.19;-19637.56;4828321;29;45546;-90
2023/01/01 06:43:47;;;;;;;;;7.33;6.00;;;;;16.02;65.16;-19637.84;4842225;29;45904;-90
2023/01/01 06:46:15;;;;;;;;;6.67;5.00;;;;;16.23;65.12;-19643.47;4842281;29;45653;-90
2023/01/01 06:48:41;;;;;;;;;3.00;3.00;;;;;14.94;64.92;-19609.53;4821496;29;48371;-89
2023/01/01 06:51:09;;;;;;;;;2.67;2.67;;;;;16.27;64.89;-19644.28;4838923;29;45557;-90
2023/01/01 06:53:34;;;;;;;;;5.00;4.00;;;;;15.80;64.76;-19632.06;4841144;29;45530;-89
2023/01/01 06:56:00;;;;;;;;;6.33;4.33;;;;;15.73;65.22;-19630.34;4820064;29;45426;-90
2023/01/01 06:58:25;;;;;;;;;3.67;3.67;;;;;15.69;65.38;-19629.25;4839722;29;47644;-89
2023/01/01 07:00:51;;;;;;;;;3.33;3.33;;;;;15.59;65.43;-19626.72;4833321;29;45424;-89
2023/01/01 07:03:16;;;;;;;;;4.00;4.00;;;;;16.04;65.66;-19638.38;4843520;29;47111;-88
2023/01/01 07:05:41;;;;;;;;;4.33;3.00;;;;;15.32;65.55;-19619.59;4842238;29;45468;-91
2023/01/01 07:08:07;;;;;;;;;6.67;3.67;;;;;15.75;65.83;-19630.72;4829136;29;48414;-90
2023/01/01 07:10:32;;;;;;;;;4.33;4.33;;;;;15.91;66.01;-19634.88;4843070;29;45381;-91
2023/01/01 07:12:59;;;;;;;;;5.33;4.67;;;;;15.67;66.12;-19628.59;4833988;29;45736;-91
2023/01/01 07:15:25;;;;;;;;;5.67;4.33;;;;;16.07;66.03;-19639.19;4835844;29;45521;-91
2023/01/01 07:17:50;;;;;;;;;3.67;3.33;;;;;15.97;66.25;-19636.50;4825467;29;48554;-91
2023/01/01 07:20:15;;;;;;;;;3.67;3.67;;;;;16.00;66.57;-19637.44;4830103;29;45443;-90
2023/01/01 07:22:41;;;;;;;;;8.00;3.33;;;;;15.43;66.35;-19622.41;4845597;29;45534;-89
2023/01/01 07:25:06;;;;;;;;;3.00;3.00;;;;;16.11;66.46;-19640.13;4841161;29;45590;-91
2023/01/01 07:27:32;;;;;;;;;3.00;3.00;;;;;15.86;66.99;-19633.69;4825266;29;47313;-89
2023/01/01 07:29:57;;;;;;;;;6.00;4.00;;;;;15.71;66.99;-19629.66;4828097;29;45725;-91
2023/01/01 07:32:23;;;;;;;;;4.33;3.00;;;;;14.65;66.57;-19602.00;4832241;29;45419;-88
2023/01/01 07:34:48;;;;;;;;;2.00;2.00;;;;;16.07;66.94;-19639.03;4839898;29;45592;-88
2023/01/01 07:37:13;;;;;;;;;5.00;4.00;;;;;15.45;66.79;-19622.94;4841018;29;48491;-89
2023/01/01 07:39:38;;;;;;;;;4.67;3.33;;;;;15.87;66.24;-19633.94;4851635;29;45450;-89
2023/01/01 07:42:04;;;;;;;;;3.33;3.00;;;;;15.72;66.76;-19629.94;4842574;29;45321;-86
2023/01/01 07:44:29;;;;;;;;;4.67;4.67;;;;;15.51;67.00;-19624.56;4843642;29;45419;-90
2023/01/01 07:47:19;;;;;;;;;7.33;6.00;;;;;15.95;66.70;-19635.97;4840685;29;47667;-90
2023/01/01 07:49:44;;;;;;;;;6.00;6.00;;;;;15.67;66.81;-19628.72;4850101;29;45607;-90
2023/01/01 07:52:10;;;;;;;;;2.00;2.00;;;;;15.98;67.03;-19636.91;4838146;29;46165;-90
2023/01/01 07:54:35;;;;;;;;;4.00;4.00;;;;;16.02;66.89;-19637.97;4842623;29;45576;-90
2023/01/01 07:57:01;;;;;;;;;7.67;5.33;;;;;15.83;67.17;-19632.88;4829789;29;47608;-90
2023/01/01 07:59:26;;;;;;;;;7.33;7.33;;;;;15.96;66.98;-19636.22;4834517;29;45702;-91
2023/01/01 08:01:51;;;;;;;;;7.33;7.33;;;;;15.31;66.95;-19619.19;4829810;29;45384;-91
2023/01/01 08:04:17;;;;;;;;;8.00;6.33;;;;;15.07;66.86;-19613.03;4823009;29;45298;-90
2023/01/01 08:06:42;;;;;;;;;3.67;3.67;;;;;16.15;67.45;-19641.31;4833785;29;48309;-90
2023/01/01 08:09:09;;;;;;;;;5.67;5.00;;;;;15.82;67.36;-19632.59;4825879;29;45351;-90
2023/01/01 08:11:34;;;;;;;;;6.67;6.67;;;;;15.63;67.34;-19627.78;4825517;29;45511;-90
2023/01/01 08:14:00;;;;;;;;;6.67;5.00;;;;;15.67;67.02;-19628.59;4826686;29;45412;-89
2023/01/01 08:16:25;;;;;;;;;5.00;4.33;;;;;15.94;67.10;-19635.69;4822974;29;48262;-89
2023/01/01 08:18:50;;;;;;;;;8.67;5.67;;;;;15.26;67.12;-19617.84;4825280;29;45458;-89
2023/01/01 08:21:16;;;;;;;;;7.00;5.67;;;;;15.85;67.39;-19633.41;4827372;29;46040;-89
2023/01/01 08:23:41;;;;;;;;;4.00;4.00;;;;;15.19;67.14;-19616.25;4817238;29;45894;-90
2023/01/01 08:26:11;;;;;;;;;7.67;4.67;;;;;15.29;67.42;-19618.66;4849123;29;48411;-90
2023/01/01 08:28:37;;;;;;;;;7.00;5.67;;;;;15.66;67.12;-19628.31;4820795;29;46214;-90
2023/01/01 08:31:02;;;;;;;;;8.33;6.33;;;;;15.97;67.38;-19636.63;4824570;29;45783;-93
2023/01/01 08:33:28;;;;;;;;;0.00;0.00;;;;;15.95;67.70;-19636.09;4810434;29;45519;-87
2023/01/01 08:35:53;;;;;;;;;5.67;4.67;;;;;15.40;69.46;-19621.75;4826020;29;46276;-88
2023/01/01 08:38:19;;;;;;;;;4.00;3.00;;;;;15.54;69.82;-19625.22;4823636;29;45533;-89
2023/01/01 08:40:44;;;;;;;;;4.00;4.00;;;;;15.47;69.62;-19623.34;4825325;29;45496;-88
2023/01/01 08:43:09;;;;;;;;;4.00;4.00;;;;;15.18;69.59;-19615.84;4825194;29;45715;-89
2023/01/01 08:45:35;;;;;;;;;3.67;3.67;;;;;15.83;70.47;-19633.00;4821897;29;47177;-88
2023/01/01 08:48:00;;;;;;;;;3.33;3.33;;;;;15.89;69.76;-19634.47;4822626;29;45545;-89
2023/01/01 08:50:25;;;;;;;;;4.00;4.00;;;;;15.77;70.70;-19631.41;4824249;29;45740;-89
2023/01/01 08:52:51;;;;;;;;;3.33;3.33;;;;;15.61;70.74;-19627.09;4824583;29;45500;-88
2023/01/01 08:55:16;;;;;;;;;3.33;3.33;;;;;16.02;70.68;-19637.84;4835584;29;48309;-89
2023/01/01 08:57:41;;;;;;;;;4.00;4.00;;;;;15.26;70.46;-19617.84;4821559;29;45604;-88
2023/01/01 09:00:08;;;;;;;;;3.33;3.33;;;;;15.08;69.98;-19613.28;4824501;29;45429;-90
2023/01/01 09:02:39;;;;;;;;;3.00;3.00;;;;;15.54;70.17;-19625.22;4823675;29;45446;-89
2023/01/01 09:05:05;;;;;;;;;3.00;3.00;;;;;15.82;70.52;-19632.59;4826947;29;45444;-91
2023/01/01 09:07:30;;;;;;;;;4.00;4.00;;;;;15.57;70.06;-19626.03;4827882;29;45933;-88
2023/01/01 09:09:55;;;;;;;;;4.00;4.00;;;;;15.73;69.72;-19630.19;4819606;29;45525;-89
2023/01/01 09:12:21;;;;;;;;;5.33;4.67;;;;;15.83;70.10;-19633.00;4824979;29;45462;-90
2023/01/01 09:14:46;;;;;;;;;3.67;3.67;;;;;15.72;69.82;-19630.06;4807470;29;47213;-90
2023/01/01 09:17:12;;;;;;;;;2.00;2.00;;;;;15.14;69.47;-19614.75;4805427;29;45844;-92
2023/01/01 09:19:37;;;;;;;;;5.00;4.00;;;;;15.99;69.95;-19637.03;4805885;29;45448;-94
2023/01/01 09:22:02;;;;;;;;;6.67;5.67;;;;;15.99;70.31;-19637.16;4824497;29;45500;-95
2023/01/01 09:24:28;;;;;;;;;3.67;3.67;;;;;15.86;70.39;-19633.69;4810517;29;47528;-94
2023/01/01 09:26:53;;;;;;;;;2.67;2.67;;;;;15.55;69.91;-19625.50;4809919;29;45440;-89
2023/01/01 09:29:20;;;;;;;;;3.00;3.00;;;;;15.81;69.94;-19632.34;4831231;29;45587;-91
2023/01/01 09:31:48;;;;;;;;;4.00;3.33;;;;;15.59;70.44;-19626.56;4809402;29;45448;-91
2023/01/01 09:34:15;;;;;;;;;7.67;6.67;;;;;15.52;70.38;-19624.81;4809421;29;48463;-92
2023/01/01 09:36:40;;;;;;;;;4.00;4.00;;;;;15.61;70.57;-19627.25;4811394;29;45773;-92
2023/01/01 09:39:06;;;;;;;;;6.33;6.33;;;;;15.03;71.15;-19611.94;4808583;29;45525;-91
2023/01/01 09:41:43;;;;;;;;;10.33;8.67;;;;;15.97;70.65;-19636.50;4811478;29;45597;-89
2023/01/01 09:44:34;;;;;;;;;8.67;8.00;;;;;15.85;70.74;-19633.41;4807816;29;48167;-91
2023/01/01 09:47:04;;;;;;;;;6.67;6.00;;;;;15.67;70.23;-19628.59;4821116;29;45281;-90
2023/01/01 09:49:41;;;;;;;;;7.67;7.67;;;;;16.00;70.40;-19637.31;4814172;29;45637;-90
2023/01/01 09:52:11;;;;;;;;;8.00;8.00;;;;;15.57;70.43;-19626.16;4819128;29;45534;-90
2023/01/01 09:54:44;;;;;;;;;6.67;5.67;;;;;14.96;71.59;-19610.06;4816068;29;48038;-91
2023/01/01 09:57:12;;;;;;;;;7.33;7.33;;;;;16.04;71.69;-19638.38;4823724;29;45370;-93
2023/01/01 09:59:39;;;;;;;;;9.25;8.75;;;;;15.60;72.74;-19626.97;4806793;29;45511;-93
2023/01/01 10:02:24;;;;;;;;;10.00;8.50;;;;;15.63;72.23;-19627.63;4812566;29;45586;-92
2023/01/01 10:04:57;;;;;;;;;10.25;10.00;;;;;15.17;72.54;-19615.56;4821208;29;48396;-92
2023/01/01 10:07:25;;;;;;;;;10.00;9.00;;;;;16.00;72.50;-19637.44;4828192;29;45473;-92
2023/01/01 10:10:19;;;;;;;;;9.25;9.25;;;;;15.99;72.09;-19637.16;4810937;29;45367;-92
2023/01/01 10:13:01;;;;;;;;;13.00;9.75;;;;;15.89;72.53;-19634.47;4813132;29;45565;-92
2023/01/01 10:15:41;;;;;;;;;9.75;9.75;;;;;15.57;72.78;-19626.16;4805217;29;47704;-91
2023/01/01 10:18:15;;;;;;;;;9.25;9.25;;;;;15.94;72.52;-19635.81;4833706;29;45372;-91
2023/01/01 10:20:57;;;;;;;;;7.75;7.75;;;;;15.41;72.84;-19622.00;4808339;29;45556;-91
2023/01/01 10:23:37;;;;;;;;;10.00;8.75;;;;;15.57;72.12;-19626.03;4809562;29;45597;-90
2023/01/01 10:26:11;;;;;;;;;8.75;8.75;;;;;16.11;72.48;-19640.25;4810928;29;46967;-90
2023/01/01 10:29:13;;;;;;;;;7.75;7.75;;;;;15.93;72.38;-19635.56;4808380;29;45575;-90
2023/01/01 10:31:44;;;;;;;;;7.25;5.25;;;;;15.93;72.41;-19635.44;4820247;29;45578;-90
2023/01/01 10:34:21;;;;;;;;;9.50;8.75;;;;;16.06;72.03;-19638.78;4826926;29;45340;-92
2023/01/01 10:36:49;;;;;;;;;8.75;8.75;;;;;16.13;72.01;-19640.78;4824263;29;45545;-94
2023/01/01 10:39:16;;;;;;;;;8.50;7.00;;;;;15.70;71.80;-19629.38;4811966;29;46219;-93
2023/01/01 10:41:43;;;;;;;;;8.00;8.00;;;;;16.10;72.13;-19639.84;4805373;29;45483;-95
2023/01/01 10:44:10;;;;;;;;;10.50;10.50;;;;;15.74;71.40;-19630.47;4809997;29;45429;-94
2023/01/01 10:46:41;;;;;;;;;9.00;9.00;;;;;16.09;71.63;-19639.72;4833459;29;48758;-95
2023/01/01 10:49:12;;;;;;;;;14.25;12.00;;;;;15.88;71.71;-19634.09;4810684;29;45399;-95
2023/01/01 10:51:56;;;;;;;;;9.00;7.75;;;;;16.02;71.78;-19637.84;4839450;29;46069;-92
2023/01/01 10:54:35;;;;;;;;;9.25;9.25;;;;;16.15;71.86;-19641.31;4811093;29;45519;-90
2023/01/01 10:57:28;;;;;;;;;7.75;7.75;;;;;16.18;71.58;-19642.13;4826703;29;48334;-92
2023/01/01 10:59:53;;;;;;;;;6.33;6.33;;;;;16.08;70.39;-19639.31;4813848;29;45502;-92
2023/01/01 11:02:24;;;;;;;;;9.00;6.75;;;;;15.70;70.77;-19629.53;4831324;29;45790;-96
2023/01/01 11:04:51;;;;;;;;;9.33;5.33;;;;;15.55;70.43;-19625.50;4835814;29;45696;-89
2023/01/01 11:07:26;;;;;;;;;5.33;4.33;;;;;15.49;70.90;-19623.88;4842913;29;45514;-92
2023/01/01 11:09:58;;;;;;;;;6.67;6.67;;;;;15.71;70.59;-19629.66;4839934;29;45551;-91
2023/01/01 11:12:29;;;;;;;;;5.67;5.67;;;;;15.90;70.92;-19634.63;4843406;29;45565;-90
2023/01/01 11:14:56;;;;;;;;;7.33;4.67;;;;;16.18;70.22;-19642.00;4825009;29;45461;-89
2023/01/01 11:17:28;;;;;;;;;6.33;4.67;;;;;15.44;70.24;-19622.69;4823604;29;47001;-91
2023/01/01 11:19:56;;;;;;;;;4.33;3.67;;;;;15.94;70.26;-19635.81;4841316;29;45476;-90
2023/01/01 11:22:44;;;;;;;;;5.00;3.00;;;;;16.03;69.75;-19638.09;4843962;29;45347;-90
2023/01/01 11:25:21;;;;;;;;;6.00;6.00;;;;;16.17;69.90;-19641.72;4841145;29;45491;-89
2023/01/01 11:27:48;;;;;;;;;7.67;5.00;;;;;16.20;70.64;-19642.53;4841408;29;46533;-88
2023/01/01 11:30:31;;;;;;;;;4.67;4.67;;;;;16.21;70.01;-19642.94;4843405;29;45446;-92
2023/01/01 11:33:00;;;;;;;;;9.33;8.67;;;;;15.79;70.41;-19631.94;4844187;29;45561;-91
2023/01/01 11:35:29;;;;;;;;;12.75;10.50;;;;;16.22;71.02;-19643.19;4850384;29;45427;-93
2023/01/01 11:37:56;;;;;;;;;7.75;7.75;;;;;16.24;70.95;-19643.59;4825065;29;47369;-93
2023/01/01 11:40:47;;;;;;;;;9.00;9.00;;;;;16.24;71.21;-19643.72;4826141;29;45479;-92
2023/01/01 11:43:21;;;;;;;;;8.00;8.00;;;;;15.86;70.95;-19633.69;4819257;29;45388;-91
2023/01/01 11:45:48;;;;;;;;;9.00;9.00;;;;;15.80;71.62;-19632.22;4826002;29;45608;-91